Atalandi — SVBA — position and weather

sailwx.info

Track history (hours):
 
Tides and Currents Weather Stations Pressure Air Temp Water Temp Dewpoint Dewpoint Depression Visibility Wind Speed Wind Dir Waves Ship Positions

Atalandi

Last reported at 2016-Aug-25 14:33 UTC. Time now 2016-Aug-25 15:00 UTC.
Position N 51°57' E 004°09'.

Length 248 m; draft 14.5 m.

Type: Ship (hazmat cat A). MMSI: 240269000.

Date/timePositionNaut miles runAvg speedWind from/ knotsBaromVisibWave heightAir tempDewpointWater temp
2016-Aug-25 14:33N 51°57' E 004°09'9 9.2
2016-Aug-25 13:33N 52°01' E 003°55'8 7.8
2016-Aug-25 12:33N 52°01' E 003°43'10 9.6
2016-Aug-25 11:33N 51°58' E 003°28'1010.4
2016-Aug-25 10:33N 51°54' E 003°12'1010.4
2016-Aug-25 09:33N 51°53' E 002°56'9 9.3
2016-Aug-25 08:33N 51°55' E 002°41'1010.0
2016-Aug-25 07:33N 52°05' E 002°38'1110.9
2016-Aug-25 06:33N 52°16' E 002°41'2412.2
2016-Aug-25 04:33N 52°37' E 002°60'1913.6
2016-Aug-25 03:11N 52°54' E 003°14'913.9
2016-Aug-25 02:33N 53°02' E 003°19'1614.1
2016-Aug-25 01:23N 53°18' E 003°27'2912.8
2016-Aug-24 23:06N 53°45' E 003°45'2112.3
2016-Aug-24 21:25N 53°57' E 004°13'1112.6
2016-Aug-24 20:33N 54°04' E 004°27'1412.8
2016-Aug-24 19:29N 54°16' E 004°39'1213.1
2016-Aug-24 18:33N 54°27' E 004°48'1413.0
2016-Aug-24 17:28N 54°40' E 004°60'1212.9
2016-Aug-24 16:33N 54°50' E 005°10'3012.7
2016-Aug-24 14:10N 55°17' E 005°35'1212.5
2016-Aug-24 13:11N 55°28' E 005°45'812.3
2016-Aug-24 12:33N 55°34' E 005°52'1412.4
2016-Aug-24 11:26N 55°47' E 006°03'1112.3
2016-Aug-24 10:32N 55°56' E 006°13'3012.4
2016-Aug-24 08:09N 56°22' E 006°38'812.6
2016-Aug-24 07:33N 56°29' E 006°45'1312.5
2016-Aug-24 06:32N 56°40' E 006°56'2812.9
2016-Aug-24 04:21N 57°05' E 007°20'1012.3
2016-Aug-24 03:33N 57°11' E 007°35'6311.9
2016-Aug-23 22:13N 57°42' E 009°17'811.9
2016-Aug-23 21:33N 57°45' E 009°31'4011.8
2016-Aug-23 18:10N 57°48' E 010°45'710.8
2016-Aug-23 17:33N 57°44' E 010°55'1212.4
2016-Aug-23 16:33N 57°36' E 011°12'1312.8
2016-Aug-23 15:33N 57°26' E 011°27'1313.1
2016-Aug-23 14:33N 57°14' E 011°36'1312.8
2016-Aug-23 13:33N 57°01' E 011°43'1312.7
2016-Aug-23 12:33N 56°49' E 011°51'1111.5
2016-Aug-23 11:33N 56°38' E 011°46'1512.7
2016-Aug-23 10:22N 56°25' E 011°33'2412.6
2016-Aug-23 08:29N 56°05' E 011°09'1412.4
2016-Aug-23 07:22N 55°54' E 010°54'3611.2
2016-Aug-23 04:06N 55°18' E 011°03'611.6
2016-Aug-23 03:33N 55°12' E 011°06'1111.3
2016-Aug-23 02:33N 55°01' E 010°60'1212.4
2016-Aug-23 01:33N 54°50' E 010°50'1111.0
2016-Aug-23 00:33N 54°39' E 010°51'1111.5
2016-Aug-22 23:33N 54°36' E 011°10'1312.5
2016-Aug-22 22:33N 54°31' E 011°30'1212.0
2016-Aug-22 21:33N 54°26' E 011°49'1010.4
2016-Aug-22 20:33N 54°26' E 012°07'9 8.6
2016-Aug-22 19:34N 54°33' E 012°15'7 7.4
2016-Aug-22 18:33N 54°39' E 012°24'31 9.8
2016-Aug-22 15:25N 54°53' E 013°11'1112.4
2016-Aug-22 14:33N 54°57' E 013°29'1212.3
2016-Aug-22 13:34N 55°01' E 013°49'1212.1
2016-Aug-22 12:33N 55°06' E 014°08'1212.3
2016-Aug-22 11:33N 55°16' E 014°21'1212.0
2016-Aug-22 10:33N 55°25' E 014°34'1212.1
2016-Aug-22 09:33N 55°32' E 014°52'1212.2
2016-Aug-22 08:33N 55°37' E 015°12'1212.3
2016-Aug-22 07:33N 55°41' E 015°32'1212.1
2016-Aug-22 06:33N 55°44' E 015°53'1212.3
2016-Aug-22 05:33N 55°47' E 016°15'1212.0
2016-Aug-22 04:33N 55°50' E 016°35'1211.8
2016-Aug-22 03:33N 55°53' E 016°56'1212.0
2016-Aug-22 02:33N 55°56' E 017°16'25511.6
2016-Aug-21 04:33N 59°20' E 022°02'1212.1
2016-Aug-21 03:33N 59°27' E 022°21'1212.0
2016-Aug-21 02:33N 59°33' E 022°42'1212.4
2016-Aug-21 01:33N 59°36' E 023°05'1212.5
2016-Aug-21 00:33N 59°39' E 023°29'1313.3
2016-Aug-20 23:33N 59°43' E 023°55'1313.1
2016-Aug-20 22:33N 59°46' E 024°20'1312.9
2016-Aug-20 21:33N 59°49' E 024°45'1513.0
2016-Aug-20 20:24N 59°52' E 025°14'1213.1
2016-Aug-20 19:30N 59°54' E 025°37'1212.9
2016-Aug-20 18:33N 59°57' E 026°01'1312.9
2016-Aug-20 17:33N 60°00' E 026°26'1212.5
2016-Aug-20 16:33N 60°00' E 026°51'1212.2
2016-Aug-20 15:33N 60°03' E 027°15'1312.9
2016-Aug-20 14:33N 60°10' E 027°37'1212.0
2016-Aug-20 13:33N 60°10' E 028°01'1212.1
2016-Aug-20 12:33N 60°08' E 028°24'1111.1
2016-Aug-20 11:33N 60°12' E 028°45'7 7.2
2016-Aug-20 10:33N 60°19' E 028°43'1 0.1
2016-Aug-20 04:15N 60°20' E 028°42'0 0.0
2016-Aug-20 03:30N 60°20' E 028°42'0 0.0
2016-Aug-19 06:33N 60°20' E 028°42'6 5.5
2016-Aug-19 05:33N 60°15' E 028°48'1413.6
2016-Aug-19 04:34N 60°05' E 028°32'4 3.3
2016-Aug-19 03:26N 60°01' E 028°29'0 0.1
2016-Aug-19 02:26N 60°01' E 028°29'0 0.0
2016-Aug-19 01:29N 60°01' E 028°29'0 0.0
2016-Aug-19 00:29N 60°01' E 028°29'0 0.0
2016-Aug-18 23:32N 60°01' E 028°29'0 0.1
2016-Aug-18 22:32N 60°01' E 028°29'0 0.0
2016-Aug-18 21:32N 60°01' E 028°29'0 0.0
2016-Aug-18 20:32N 60°01' E 028°29'0 0.1
2016-Aug-18 19:32N 60°01' E 028°29'0 0.0
2016-Aug-18 18:32N 60°01' E 028°29'0 0.0
2016-Aug-18 17:23N 60°01' E 028°29'0 0.1
2016-Aug-18 16:32N 60°01' E 028°28'0 0.0
2016-Aug-18 15:23N 60°01' E 028°28'0 0.0
2016-Aug-18 14:26N 60°01' E 028°28'0 0.1
2016-Aug-18 13:26N 60°01' E 028°28'0 0.1
2016-Aug-18 12:26N 60°01' E 028°29'0 0.0
2016-Aug-18 11:29N 60°01' E 028°28'0 0.0
2016-Aug-18 10:29N 60°01' E 028°29'0 0.0
2016-Aug-18 09:31N 60°01' E 028°29'0 0.1
2016-Aug-18 08:29N 60°01' E 028°29'0 0.0
2016-Aug-18 07:32N 60°01' E 028°29'0 0.0
2016-Aug-18 06:32N 60°01' E 028°29'0 0.0
2016-Aug-18 05:32N 60°01' E 028°29'0 0.0
2016-Aug-18 04:17N 60°01' E 028°29'0 0.0
2016-Aug-18 03:32N 60°01' E 028°29'0 0.0
2016-Aug-18 02:23N 60°01' E 028°29'0 0.0
2016-Aug-18 01:23N 60°01' E 028°29'0 0.1
2016-Aug-18 00:26N 60°01' E 028°28'0 0.0
2016-Aug-17 23:26N 60°01' E 028°28'0 0.1
2016-Aug-17 22:26N 60°01' E 028°29'0 0.1
2016-Aug-17 21:29N 60°01' E 028°29'0 0.0
2016-Aug-17 20:29N 60°01' E 028°29'0 0.0
2016-Aug-17 19:29N 60°01' E 028°29'0 0.0
2016-Aug-17 18:32N 60°01' E 028°29'0 0.0
2016-Aug-17 17:32N 60°01' E 028°29'0 0.0
2016-Aug-17 16:29N 60°01' E 028°28'0 0.0
2016-Aug-17 15:32N 60°01' E 028°29'0 0.0
2016-Aug-17 14:32N 60°01' E 028°29'0 0.0
2016-Aug-17 13:32N 60°01' E 028°29'0 0.0
2016-Aug-17 12:23N 60°01' E 028°29'0 0.1
2016-Aug-17 11:23N 60°01' E 028°29'0 0.1
2016-Aug-17 10:26N 60°01' E 028°29'0 0.0
2016-Aug-17 09:26N 60°01' E 028°28'0 0.1
2016-Aug-17 08:26N 60°01' E 028°28'0 0.1
2016-Aug-17 07:31N 60°01' E 028°29'0 0.0
2016-Aug-17 06:19N 60°01' E 028°29'2 2.2
2016-Aug-17 05:34N 60°03' E 028°27'7 6.8
2016-Aug-17 04:34N 60°07' E 028°17'7 7.0
2016-Aug-17 03:34N 60°09' E 028°03'7 7.3
2016-Aug-17 02:34N 60°11' E 027°49'8 7.7
2016-Aug-17 01:33N 60°07' E 027°35'8 8.3
2016-Aug-17 00:34N 60°03' E 027°21'1110.7
2016-Aug-16 23:33N 59°58' E 027°02'1110.9
2016-Aug-16 22:33N 59°59' E 026°41'1110.6
2016-Aug-16 21:32N 59°57' E 026°20'58 8.0
2016-Aug-16 14:20N 59°44' E 024°28'7 8.6
2016-Aug-16 13:32N 59°42' E 024°15'8 8.3
2016-Aug-16 12:33N 59°39' E 023°60'9 8.5
2016-Aug-16 11:33N 59°37' E 023°44'9 9.3
2016-Aug-16 10:34N 59°34' E 023°26'1211.5
2016-Aug-16 09:34N 59°30' E 023°05'  
Track history (hours):
 
Tides and Currents Weather Stations Pressure Air Temp Water Temp Dewpoint Dewpoint Depression Visibility Wind Speed Wind Dir Waves Ship Positions

Atalandi

Last reported at 2016-Aug-25 14:33 UTC. Time now 2016-Aug-25 15:00 UTC.
Position N 51°57' E 004°09'.

Length 248 m; draft 14.5 m.

Type: Ship (hazmat cat A). MMSI: 240269000.

Date/timePositionNaut miles runAvg speedWind from/ knotsBaromVisibWave heightAir tempDewpointWater temp
2016-Aug-25 14:33N 51°57' E 004°09'9 9.2
2016-Aug-25 13:33N 52°01' E 003°55'8 7.8
2016-Aug-25 12:33N 52°01' E 003°43'10 9.6
2016-Aug-25 11:33N 51°58' E 003°28'1010.4
2016-Aug-25 10:33N 51°54' E 003°12'1010.4
2016-Aug-25 09:33N 51°53' E 002°56'9 9.3
2016-Aug-25 08:33N 51°55' E 002°41'1010.0
2016-Aug-25 07:33N 52°05' E 002°38'1110.9
2016-Aug-25 06:33N 52°16' E 002°41'2412.2
2016-Aug-25 04:33N 52°37' E 002°60'1913.6
2016-Aug-25 03:11N 52°54' E 003°14'913.9
2016-Aug-25 02:33N 53°02' E 003°19'1614.1
2016-Aug-25 01:23N 53°18' E 003°27'2912.8
2016-Aug-24 23:06N 53°45' E 003°45'2112.3
2016-Aug-24 21:25N 53°57' E 004°13'1112.6
2016-Aug-24 20:33N 54°04' E 004°27'1412.8
2016-Aug-24 19:29N 54°16' E 004°39'1213.1
2016-Aug-24 18:33N 54°27' E 004°48'1413.0
2016-Aug-24 17:28N 54°40' E 004°60'1212.9
2016-Aug-24 16:33N 54°50' E 005°10'3012.7
2016-Aug-24 14:10N 55°17' E 005°35'1212.5
2016-Aug-24 13:11N 55°28' E 005°45'812.3
2016-Aug-24 12:33N 55°34' E 005°52'1412.4
2016-Aug-24 11:26N 55°47' E 006°03'1112.3
2016-Aug-24 10:32N 55°56' E 006°13'3012.4
2016-Aug-24 08:09N 56°22' E 006°38'812.6
2016-Aug-24 07:33N 56°29' E 006°45'1312.5
2016-Aug-24 06:32N 56°40' E 006°56'2812.9
2016-Aug-24 04:21N 57°05' E 007°20'1012.3
2016-Aug-24 03:33N 57°11' E 007°35'6311.9
2016-Aug-23 22:13N 57°42' E 009°17'811.9
2016-Aug-23 21:33N 57°45' E 009°31'4011.8
2016-Aug-23 18:10N 57°48' E 010°45'710.8
2016-Aug-23 17:33N 57°44' E 010°55'1212.4
2016-Aug-23 16:33N 57°36' E 011°12'1312.8
2016-Aug-23 15:33N 57°26' E 011°27'1313.1
2016-Aug-23 14:33N 57°14' E 011°36'1312.8
2016-Aug-23 13:33N 57°01' E 011°43'1312.7
2016-Aug-23 12:33N 56°49' E 011°51'1111.5
2016-Aug-23 11:33N 56°38' E 011°46'1512.7
2016-Aug-23 10:22N 56°25' E 011°33'2412.6
2016-Aug-23 08:29N 56°05' E 011°09'1412.4
2016-Aug-23 07:22N 55°54' E 010°54'3611.2
2016-Aug-23 04:06N 55°18' E 011°03'611.6
2016-Aug-23 03:33N 55°12' E 011°06'1111.3
2016-Aug-23 02:33N 55°01' E 010°60'1212.4
2016-Aug-23 01:33N 54°50' E 010°50'1111.0
2016-Aug-23 00:33N 54°39' E 010°51'1111.5
2016-Aug-22 23:33N 54°36' E 011°10'1312.5
2016-Aug-22 22:33N 54°31' E 011°30'1212.0
2016-Aug-22 21:33N 54°26' E 011°49'1010.4
2016-Aug-22 20:33N 54°26' E 012°07'9 8.6
2016-Aug-22 19:34N 54°33' E 012°15'7 7.4
2016-Aug-22 18:33N 54°39' E 012°24'31 9.8
2016-Aug-22 15:25N 54°53' E 013°11'1112.4
2016-Aug-22 14:33N 54°57' E 013°29'1212.3
2016-Aug-22 13:34N 55°01' E 013°49'1212.1
2016-Aug-22 12:33N 55°06' E 014°08'1212.3
2016-Aug-22 11:33N 55°16' E 014°21'1212.0
2016-Aug-22 10:33N 55°25' E 014°34'1212.1
2016-Aug-22 09:33N 55°32' E 014°52'1212.2
2016-Aug-22 08:33N 55°37' E 015°12'1212.3
2016-Aug-22 07:33N 55°41' E 015°32'1212.1
2016-Aug-22 06:33N 55°44' E 015°53'1212.3
2016-Aug-22 05:33N 55°47' E 016°15'1212.0
2016-Aug-22 04:33N 55°50' E 016°35'1211.8
2016-Aug-22 03:33N 55°53' E 016°56'1212.0
2016-Aug-22 02:33N 55°56' E 017°16'25511.6
2016-Aug-21 04:33N 59°20' E 022°02'1212.1
2016-Aug-21 03:33N 59°27' E 022°21'1212.0
2016-Aug-21 02:33N 59°33' E 022°42'1212.4
2016-Aug-21 01:33N 59°36' E 023°05'1212.5
2016-Aug-21 00:33N 59°39' E 023°29'1313.3
2016-Aug-20 23:33N 59°43' E 023°55'1313.1
2016-Aug-20 22:33N 59°46' E 024°20'1312.9
2016-Aug-20 21:33N 59°49' E 024°45'1513.0
2016-Aug-20 20:24N 59°52' E 025°14'1213.1
2016-Aug-20 19:30N 59°54' E 025°37'1212.9
2016-Aug-20 18:33N 59°57' E 026°01'1312.9
2016-Aug-20 17:33N 60°00' E 026°26'1212.5
2016-Aug-20 16:33N 60°00' E 026°51'1212.2
2016-Aug-20 15:33N 60°03' E 027°15'1312.9
2016-Aug-20 14:33N 60°10' E 027°37'1212.0
2016-Aug-20 13:33N 60°10' E 028°01'1212.1
2016-Aug-20 12:33N 60°08' E 028°24'1111.1
2016-Aug-20 11:33N 60°12' E 028°45'7 7.2
2016-Aug-20 10:33N 60°19' E 028°43'1 0.1
2016-Aug-20 04:15N 60°20' E 028°42'0 0.0
2016-Aug-20 03:30N 60°20' E 028°42'0 0.0
2016-Aug-19 06:33N 60°20' E 028°42'6 5.5
2016-Aug-19 05:33N 60°15' E 028°48'1413.6
2016-Aug-19 04:34N 60°05' E 028°32'4 3.3
2016-Aug-19 03:26N 60°01' E 028°29'0 0.1
2016-Aug-19 02:26N 60°01' E 028°29'0 0.0
2016-Aug-19 01:29N 60°01' E 028°29'0 0.0
2016-Aug-19 00:29N 60°01' E 028°29'0 0.0
2016-Aug-18 23:32N 60°01' E 028°29'0 0.1
2016-Aug-18 22:32N 60°01' E 028°29'0 0.0
2016-Aug-18 21:32N 60°01' E 028°29'0 0.0
2016-Aug-18 20:32N 60°01' E 028°29'0 0.1
2016-Aug-18 19:32N 60°01' E 028°29'0 0.0
2016-Aug-18 18:32N 60°01' E 028°29'0 0.0
2016-Aug-18 17:23N 60°01' E 028°29'0 0.1
2016-Aug-18 16:32N 60°01' E 028°28'0 0.0
2016-Aug-18 15:23N 60°01' E 028°28'0 0.0
2016-Aug-18 14:26N 60°01' E 028°28'0 0.1
2016-Aug-18 13:26N 60°01' E 028°28'0 0.1
2016-Aug-18 12:26N 60°01' E 028°29'0 0.0
2016-Aug-18 11:29N 60°01' E 028°28'0 0.0
2016-Aug-18 10:29N 60°01' E 028°29'0 0.0
2016-Aug-18 09:31N 60°01' E 028°29'0 0.1
2016-Aug-18 08:29N 60°01' E 028°29'0 0.0
2016-Aug-18 07:32N 60°01' E 028°29'0 0.0
2016-Aug-18 06:32N 60°01' E 028°29'0 0.0
2016-Aug-18 05:32N 60°01' E 028°29'0 0.0
2016-Aug-18 04:17N 60°01' E 028°29'0 0.0
2016-Aug-18 03:32N 60°01' E 028°29'0 0.0
2016-Aug-18 02:23N 60°01' E 028°29'0 0.0
2016-Aug-18 01:23N 60°01' E 028°29'0 0.1
2016-Aug-18 00:26N 60°01' E 028°28'0 0.0
2016-Aug-17 23:26N 60°01' E 028°28'0 0.1
2016-Aug-17 22:26N 60°01' E 028°29'0 0.1
2016-Aug-17 21:29N 60°01' E 028°29'0 0.0
2016-Aug-17 20:29N 60°01' E 028°29'0 0.0
2016-Aug-17 19:29N 60°01' E 028°29'0 0.0
2016-Aug-17 18:32N 60°01' E 028°29'0 0.0
2016-Aug-17 17:32N 60°01' E 028°29'0 0.0
2016-Aug-17 16:29N 60°01' E 028°28'0 0.0
2016-Aug-17 15:32N 60°01' E 028°29'0 0.0
2016-Aug-17 14:32N 60°01' E 028°29'0 0.0
2016-Aug-17 13:32N 60°01' E 028°29'0 0.0
2016-Aug-17 12:23N 60°01' E 028°29'0 0.1
2016-Aug-17 11:23N 60°01' E 028°29'0 0.1
2016-Aug-17 10:26N 60°01' E 028°29'0 0.0
2016-Aug-17 09:26N 60°01' E 028°28'0 0.1
2016-Aug-17 08:26N 60°01' E 028°28'0 0.1
2016-Aug-17 07:31N 60°01' E 028°29'0 0.0
2016-Aug-17 06:19N 60°01' E 028°29'2 2.2
2016-Aug-17 05:34N 60°03' E 028°27'7 6.8
2016-Aug-17 04:34N 60°07' E 028°17'7 7.0
2016-Aug-17 03:34N 60°09' E 028°03'7 7.3
2016-Aug-17 02:34N 60°11' E 027°49'8 7.7
2016-Aug-17 01:33N 60°07' E 027°35'8 8.3
2016-Aug-17 00:34N 60°03' E 027°21'1110.7
2016-Aug-16 23:33N 59°58' E 027°02'1110.9
2016-Aug-16 22:33N 59°59' E 026°41'1110.6
2016-Aug-16 21:32N 59°57' E 026°20'58 8.0
2016-Aug-16 14:20N 59°44' E 024°28'7 8.6
2016-Aug-16 13:32N 59°42' E 024°15'8 8.3
2016-Aug-16 12:33N 59°39' E 023°60'9 8.5
2016-Aug-16 11:33N 59°37' E 023°44'9 9.3
2016-Aug-16 10:34N 59°34' E 023°26'1211.5
2016-Aug-16 09:34N 59°30' E 023°05'  

Dump ship's entire track history